Latest Coastal Weather Observations for Lockhart River

IDQ60701

Issued at 12:25 pm EST Thursday 2 October 2014 (issued every 10 minutes, with the page automatically refreshed every 10 minutes)

About coastal observations | Map of coastal stations | Coastal observations for QLD | Marine services | Other Formats
Station Details ID: 028008 Name: LOCKHART RIVER AIRPORT Lat: -12.79 Lon: 143.30 Height: 18.5 m
Data from the previous 72 hours. | See also: Recent months at Lockhart River
Date/Time
EST
Temp

°C
Wind Pressure Rain
since 9am
mm
Weather Cloud Vis
km
Sea
Height
m
Swell
Dir
 
Speed
knots
Gust
knots
hPa Trend Height
m
Period
s
Dir
02/12:00pm 28.3 E 11 17 1013.6 - 0.0 - - - - - - -
02/11:30am 27.5 E 11 19 1014.0 - 0.0 - - - - - - -
02/11:00am 27.7 E 10 15 1014.5 - 0.0 - Partly cloudy - - - - -
02/10:30am 26.5 E 10 16 1014.8 - 0.0 - Partly cloudy - - - - -
02/10:00am 27.1 ESE 11 16 1015.0 - 0.0 - Partly cloudy - - - - -
02/09:30am 26.6 E 11 17 1015.0 - 0.0 - Partly cloudy - - - - -
02/09:00am 26.4 ESE 11 17 1014.9 - 0.0 Fine Partly cloudy 30 - - - -
02/08:30am 26.7 ESE 10 18 1014.7 - 0.0 - Partly cloudy - - - - -
02/08:00am 25.5 SE 7 12 1014.5 - 0.0 - Partly cloudy - - - - -
02/07:30am 22.7 CALM 0 4 1014.4 - 0.0 - Cloudy - - - - -
02/07:00am 20.6 CALM 0 0 1014.1 - 0.0 - Partly cloudy - - - - -
02/06:30am 18.7 CALM 0 0 1013.7 - 0.0 - Partly cloudy - - - - -
02/06:00am 18.9 CALM 0 0 1013.2 - 0.0 - Partly cloudy - - - - -
02/05:30am 19.3 CALM 0 0 1013.3 - 0.0 - Partly cloudy - - - - -
02/05:00am 19.6 CALM 0 0 1013.0 - 0.0 - Partly cloudy - - - - -
02/04:30am 19.4 CALM 0 0 1012.6 - 0.0 - Partly cloudy - - - - -
02/04:00am 19.8 CALM 0 0 1012.6 - 0.0 - Partly cloudy - - - - -
02/03:30am 20.0 CALM 0 0 1012.7 - 0.0 - Partly cloudy - - - - -
02/03:00am 21.2 CALM 0 2 1012.6 - 0.0 - Partly cloudy - - - - -
02/02:30am 21.3 SSW 4 5 1012.8 - 0.0 - Partly cloudy - - - - -
02/02:00am 22.9 SE 6 7 1013.0 - 0.0 - Partly cloudy - - - - -
02/01:30am 23.0 SE 6 8 1013.3 - 0.0 - Partly cloudy - - - - -
02/01:00am 23.2 ESE 7 11 1013.6 - 0.0 - - - - - - -
02/12:30am 23.5 SE 9 13 1014.0 - 0.0 - Partly cloudy - - - - -
02/12:00am 23.6 SE 9 13 1014.2 - 0.0 - Partly cloudy - - - - -
 
Date/Time
EST
Temp

°C
Wind Pressure Rain
since 9am
mm
Weather Cloud Vis
km
Sea
Height
m
Swell
Dir
 
Speed
knots
Gust
knots
hPa Trend Height
m
Period
s
Dir
01/11:30pm 23.8 SE 9 14 1014.4 - 0.0 - Cloudy - - - - -
01/11:00pm 24.3 ESE 9 14 1014.6 - 0.0 - Partly cloudy - - - - -
01/10:30pm 24.2 ESE 11 16 1014.7 - 0.0 - Partly cloudy - - - - -
01/10:00pm 24.1 ESE 10 16 1014.9 - 0.0 - Partly cloudy - - - - -
01/09:30pm 23.9 ESE 11 16 1014.8 - 0.0 - Partly cloudy - - - - -
01/09:00pm 24.1 ESE 12 19 1014.7 - 0.0 - Partly cloudy - - - - -
01/08:30pm 24.3 SE 11 16 1014.6 - 0.0 - Partly cloudy - - - - -
01/08:00pm 24.3 ESE 9 15 1014.3 - 0.0 - Partly cloudy - - - - -
01/07:30pm 24.3 ESE 9 12 1013.9 - 0.0 - Partly cloudy - - - - -
01/07:00pm 24.4 ESE 10 15 1013.6 - 0.0 - Cloudy - - - - -
01/06:30pm 24.6 ESE 10 15 1013.4 - 0.0 - Partly cloudy - - - - -
01/06:00pm 24.9 ESE 12 17 1012.9 - 0.0 - Partly cloudy - - - - -
01/05:30pm 25.3 ESE 12 17 1012.6 - 0.0 - Partly cloudy - - - - -
01/05:00pm 25.9 ESE 11 19 1012.3 - 0.0 - Partly cloudy - - - - -
01/04:30pm 27.2 ESE 13 19 1012.1 - 0.0 - Partly cloudy - - - - -
01/04:00pm 26.9 ESE 15 21 1012.0 - 0.0 - - - - - - -
01/03:30pm 27.3 ESE 15 21 1012.0 - 0.0 - - - - - - -
01/03:00pm 27.6 ESE 15 22 1011.9 - 0.0 Fine Partly cloudy 30 - - - -
01/02:33pm 27.9 ESE 15 25 1012.3 - 0.0 - - - - - - -
01/02:30pm 27.6 ESE 16 22 1012.3 - 0.0 - - - - - - -
01/02:00pm 27.4 E 14 20 1012.6 - 0.0 - - - - - - -
01/01:30pm 28.2 E 13 20 1012.9 - 0.0 - - - - - - -
01/01:00pm 27.9 E 13 20 1013.4 - 0.0 - Partly cloudy - - - - -
01/12:30pm 28.7 ESE 12 18 1014.0 - 0.0 - - - - - - -
01/12:00pm 27.9 ESE 14 19 1014.3 - 0.0 - Partly cloudy - - - - -
01/11:30am 28.5 ESE 13 19 1014.9 - 0.0 - Partly cloudy - - - - -
01/11:00am 27.4 ESE 13 22 1015.4 - 0.0 - Partly cloudy - - - - -
01/10:30am 27.3 ESE 13 19 1015.7 - 0.0 - Partly cloudy - - - - -
01/10:00am 27.3 E 13 22 1015.8 - 0.0 - - - - - - -
01/09:30am 26.5 ESE 14 21 1015.9 - 0.0 - Partly cloudy - - - - -
01/09:00am 26.4 E 11 17 1015.9 - 0.2 Fine Partly cloudy 30 - - - -
01/08:30am 26.4 E 11 19 1015.9 - 0.2 - - - - - - -
01/08:00am 25.8 ESE 10 15 1015.4 - 0.2 - - - - - - -
01/07:30am 24.5 ESE 9 13 1015.1 - 0.2 - Partly cloudy - - - - -
01/07:23am 23.5 ESE 7 11 1014.9 - 0.2 - Partly cloudy - - - - -
01/07:00am 18.4 WNW 3 4 1014.8 - 0.2 - Partly cloudy - - - - -
01/06:30am 17.7 CALM 0 0 1014.5 - 0.2 - Partly cloudy - - - - -
01/06:00am 17.5 CALM 0 0 1014.2 - 0.2 - - - - - - -
01/05:30am 18.1 CALM 0 0 1014.0 - 0.2 - - - - - - -
01/05:00am 19.3 CALM 0 0 1013.8 - 0.2 - - - - - - -
01/04:30am 20.5 S 5 6 1013.7 - 0.2 - - - - - - -
01/04:00am 22.0 SE 5 7 1013.5 - 0.2 - - - - - - -
01/03:30am 22.5 SE 8 10 1013.3 - 0.2 - - - - - - -
01/03:00am 23.0 ESE 8 11 1013.3 - 0.2 - Partly cloudy - - - - -
01/02:30am 23.2 ESE 10 17 1013.4 - 0.2 - Partly cloudy - - - - -
01/02:00am 23.5 ESE 10 16 1013.8 - 0.2 - Partly cloudy - - - - -
01/01:30am 23.5 ESE 10 16 1014.2 - 0.2 - Partly cloudy - - - - -
01/01:00am 23.3 ESE 10 17 1014.5 - 0.2 - Partly cloudy - - - - -
01/12:30am 23.4 ESE 9 14 1014.9 - 0.2 - Partly cloudy - - - - -
01/12:00am 23.5 ESE 10 18 1015.2 - 0.2 - Partly cloudy - - - - -
 
Date/Time
EST
Temp

°C
Wind Pressure Rain
since 9am
mm
Weather Cloud Vis
km
Sea
Height
m
Swell
Dir
 
Speed
knots
Gust
knots
hPa Trend Height
m
Period
s
Dir
30/11:30pm 23.6 ESE 10 15 1015.6 - 0.2 - Partly cloudy - - - - -
30/11:00pm 23.7 ESE 11 18 1015.8 - 0.2 - Partly cloudy - - - - -
30/10:30pm 23.7 ESE 10 20 1016.0 - 0.2 - - - - - - -
30/10:00pm 21.8 S 5 8 1016.0 - 0.2 - - - - - - -
30/09:30pm 22.9 S 5 7 1016.0 - 0.2 - Partly cloudy - - - - -
30/09:00pm 24.1 ESE 9 13 1015.7 - 0.2 - - - - - - -
30/08:30pm 24.1 ESE 10 15 1015.5 - 0.2 - - - - - - -
30/08:00pm 24.1 ESE 7 12 1015.2 - 0.2 - - - - - - -
30/07:30pm 24.2 ESE 8 12 1014.9 - 0.2 - Partly cloudy - - - - -
30/07:00pm 24.2 SE 10 13 1014.6 - 0.2 - - - - - - -
30/06:30pm 24.4 ESE 9 14 1014.3 - 0.2 - - - - - - -
30/06:00pm 24.7 ESE 9 14 1014.0 - 0.2 - - - - - - -
30/05:30pm 25.3 ESE 11 15 1013.9 - 0.2 - Partly cloudy - - - - -
30/05:00pm 25.7 ESE 11 16 1013.6 - 0.2 - Partly cloudy - - - - -
30/04:30pm 26.0 ESE 13 19 1013.4 - 0.2 - Partly cloudy - - - - -
30/04:00pm 26.6 ESE 15 20 1013.3 - 0.2 - - - - - - -
30/03:30pm 26.9 ESE 15 20 1013.4 - 0.2 - Partly cloudy - - - - -
30/03:00pm 26.9 ESE 15 24 1013.4 - 0.2 Fine Mostly cloudy 25 - - - -
30/02:30pm 27.1 ESE 16 24 1013.7 - 0.2 - - - - - - -
30/02:04pm 27.8 ESE 15 26 1013.6 - 0.2 - Partly cloudy - - - - -
30/02:00pm 27.1 ESE 15 21 1013.6 - 0.2 - Partly cloudy - - - - -
30/01:30pm 27.2 ESE 15 21 1014.0 - 0.2 - Partly cloudy - - - - -
30/01:00pm 28.1 ESE 15 22 1014.4 - 0.2 - - - - - - -
30/12:30pm 28.7 ESE 13 18 1014.8 - 0.2 - Partly cloudy - - - - -
30/12:00pm 27.3 ESE 14 21 1015.1 - 0.2 - Partly cloudy - - - - -
30/11:30am 25.3 ESE 10 14 1015.8 - 0.2 - Partly cloudy - - - - -
30/11:00am 27.0 ESE 14 21 1016.0 - 0.0 - Partly cloudy - - - - -
30/10:30am 28.4 ESE 16 23 1016.2 - 0.0 - Partly cloudy - - - - -
30/10:00am 27.3 ESE 14 21 1016.1 - 0.0 - - - - - - -
30/09:30am 26.9 E 12 18 1016.2 - 0.0 - - - - - - -
30/09:00am 26.7 ESE 12 21 1016.2 - 0.0 Fine Mostly cloudy 25 - - - -
30/08:30am 25.9 ESE 13 20 1016.2 - 0.0 - - - - - - -
30/08:00am 25.5 ESE 15 19 1015.9 - 0.0 - Partly cloudy - - - - -
30/07:30am 25.0 ESE 12 18 1015.3 - 0.0 - - - - - - -
30/07:00am 24.0 ESE 12 17 1015.0 - 0.0 - - - - - - -
30/06:30am 22.5 SE 6 9 1014.6 - 0.0 - - - - - - -
30/06:00am 23.0 ESE 8 11 1014.1 - 0.0 - - - - - - -
30/05:30am 23.4 ESE 8 12 1014.0 - 0.0 - - - - - - -
30/05:00am 23.5 ESE 8 13 1013.7 - 0.0 - Partly cloudy - - - - -
30/04:30am 23.6 ESE 9 13 1013.5 - 0.0 - Partly cloudy - - - - -
30/04:00am 23.1 SE 7 11 1013.4 - 0.0 - Partly cloudy - - - - -
30/03:30am 22.5 SE 6 9 1013.2 - 0.0 - - - - - - -
30/03:00am 22.9 SE 7 9 1013.2 - 0.0 - Partly cloudy - - - - -
30/02:30am 23.5 ESE 7 13 1013.6 - 0.0 - - - - - - -
30/02:00am 23.6 ESE 9 16 1013.8 - 0.0 - Partly cloudy - - - - -
30/01:30am 23.7 ESE 10 16 1014.1 - 0.0 - Partly cloudy - - - - -
30/01:00am 23.8 ESE 10 16 1014.4 - 0.0 - - - - - - -
30/12:30am 23.9 ESE 11 15 1014.8 - 0.0 - - - - - - -
30/12:00am 23.8 ESE 8 12 1014.9 - 0.0 - - - - - - -
 
Date/Time
EST
Temp

°C
Wind Pressure Rain
since 9am
mm
Weather Cloud Vis
km
Sea
Height
m
Swell
Dir
 
Speed
knots
Gust
knots
hPa Trend Height
m
Period
s
Dir
29/11:30pm 23.9 ESE 10 15 1015.3 - 0.0 - - - - - - -
29/11:00pm 24.0 ESE 10 18 1015.5 - 0.0 - - - - - - -
29/10:30pm 24.0 ESE 10 16 1015.5 - 0.0 - - - - - - -
29/10:00pm 24.1 ESE 10 15 1015.5 - 0.0 - - - - - - -
29/09:30pm 24.1 ESE 10 15 1015.6 - 0.0 - - - - - - -
29/09:00pm 24.3 ESE 13 19 1015.3 - 0.0 - - - - - - -
29/08:30pm 24.3 ESE 11 17 1015.2 - 0.0 - - - - - - -
29/08:00pm 24.4 ESE 12 18 1015.0 - 0.0 - - - - - - -
29/07:30pm 24.2 ESE 8 12 1014.6 - 0.0 - Partly cloudy - - - - -
29/07:00pm 24.4 ESE 12 17 1014.1 - 0.0 - Partly cloudy - - - - -
29/06:30pm 24.5 ESE 11 19 1013.7 - 0.0 - Partly cloudy - - - - -
29/06:00pm 24.9 ESE 10 17 1013.5 - 0.0 - Partly cloudy - - - - -
29/05:30pm 25.5 ESE 12 17 1013.2 - 0.0 - - - - - - -
29/05:00pm 26.7 ESE 13 20 1012.8 - 0.0 - - - - - - -
29/04:30pm 26.9 ESE 13 20 1012.7 - 0.0 - Partly cloudy - - - - -
29/04:00pm 27.5 ESE 14 19 1012.6 - 0.0 - Partly cloudy - - - - -
29/03:56pm 27.8 ESE 15 25 1012.6 - 0.0 - Partly cloudy - - - - -
29/03:30pm 27.1 ESE 16 24 1012.6 - 0.0 - - - - - - -
29/03:20pm 27.2 ESE 15 25 1012.6 - 0.0 - Partly cloudy - - - - -
29/03:00pm 27.8 E 15 22 1012.6 - 0.0 Fine Mostly cloudy 25 - - - -
29/02:30pm 27.0 ESE 17 23 1013.0 - 0.0 - Partly cloudy - - - - -
29/02:07pm 27.0 ESE 15 25 1013.3 - 0.0 - Partly cloudy - - - - -
29/02:00pm 28.6 E 13 25 1013.4 - 0.0 - Partly cloudy - - - - -
29/01:30pm 28.4 ESE 15 24 1013.8 - 0.0 - Partly cloudy - - - - -
29/01:00pm 27.4 ESE 16 24 1014.2 - 0.0 - Partly cloudy - - - - -
29/12:34pm 28.4 ESE 15 25 1014.4 - 0.0 - Partly cloudy - - - - -
29/12:30pm 27.3 ESE 16 25 1014.5 - 0.0 - Partly cloudy - - - - -

Other Formats:

Comma delimited format used in spreadsheet applications
http://www.bom.gov.au/fwo/IDQ60701/IDQ60701.94186.axf

JavaScript Object Notation format (JSON) in row-major order
http://www.bom.gov.au/fwo/IDQ60701/IDQ60701.94186.json